| time (UTC) | temp C | wind direction | speed KPH | gust KPH | rain 1hr cm | rain 24hr cm | rain mn cm | humidity % | barometer mb |
| 20260904183014 | 25 | 25 | 6.4 | 17.7 | 0.00 | 0.05 | 0.00 | 71 | 1011.0 |
| 20260904181520 | 24 | 19 | 3.2 | 9.7 | 0.00 | 0.05 | 0.00 | 75 | 1011.0 |
| 20260904180021 | 23 | 29 | 6.4 | 14.5 | 0.00 | 0.05 | 0.00 | 75 | 1011.1 |
| 20260904174511 | 22 | 76 | 4.8 | 11.3 | 0.00 | 0.05 | 0.00 | 78 | 1011.2 |
| 20260904173016 | 21 | 330 | 6.4 | 16.1 | 0.00 | 0.05 | 0.00 | 80 | 1011.4 |
| 20260904171513 | 20 | 332 | 8.0 | 16.1 | 0.00 | 0.05 | 0.00 | 83 | 1011.5 |
| 20260904170018 | 20 | 11 | 8.0 | 16.1 | 0.00 | 0.05 | 0.00 | 84 | 1011.5 |
| 20260904164624 | 20 | 46 | 3.2 | 16.1 | 0.00 | 0.05 | 0.00 | 85 | 1011.4 |
| 20260904163128 | 20 | 355 | 6.4 | 16.1 | 0.00 | 0.05 | 0.00 | 85 | 1011.1 |
| 20260904161518 | 20 | 327 | 8.0 | 19.3 | 0.00 | 0.05 | 0.00 | 85 | 1011.0 |
| 20260904160127 | 20 | 20 | 9.7 | 17.7 | 0.00 | 0.05 | 0.00 | 85 | 1010.9 |
| 20260904154510 | 20 | 39 | 8.0 | 14.5 | 0.00 | 0.05 | 0.00 | 85 | 1010.6 |
| 20260904153132 | 20 | 55 | 8.0 | 16.1 | 0.00 | 0.05 | 0.00 | 85 | 1010.5 |
| 20260904151513 | 20 | 16 | 6.4 | 16.1 | 0.00 | 0.05 | 0.00 | 86 | 1010.2 |
| 20260904150016 | 20 | 51 | 9.7 | 19.3 | 0.00 | 0.05 | 0.00 | 86 | 1010.0 |
| 20260904144512 | 20 | 333 | 4.8 | 14.5 | 0.00 | 0.05 | 0.00 | 87 | 1009.9 |
| 20260904143010 | 20 | 5 | 6.4 | 19.3 | 0.00 | 0.05 | 0.00 | 89 | 1010.0 |
| 20260904141508 | 21 | 32 | 6.4 | 16.1 | 0.00 | 0.05 | 0.00 | 90 | 1009.7 |
| 20260904140010 | 21 | 60 | 3.2 | 6.4 | 0.00 | 0.05 | 0.00 | 90 | 1009.2 |
| 20260904134624 | 21 | 26 | 3.2 | 6.4 | 0.00 | 0.05 | 0.00 | 89 | 1009.0 |
| 20260904133126 | 20 | 82 | 3.2 | 6.4 | 0.00 | 0.05 | 0.00 | 89 | 1008.8 |
| 20260904131508 | 20 | 90 | 3.2 | 6.4 | 0.00 | 0.05 | 0.00 | 89 | 1008.8 |
| 20260904130004 | 20 | 105 | 3.2 | 9.7 | 0.00 | 0.05 | 0.00 | 90 | 1008.7 |
| 20260904124623 | 20 | 64 | 3.2 | 6.4 | 0.00 | 0.05 | 0.00 | 90 | 1008.8 |
| 20260904123002 | 20 | 67 | 0.0 | 6.4 | 0.00 | 0.05 | 0.00 | 90 | 1008.8 |
| 20260904121514 | 19 | 67 | 3.2 | 6.4 | 0.00 | 0.05 | 0.00 | 89 | 1008.7 |
| 20260904120011 | 19 | 88 | 3.2 | 8.0 | 0.00 | 0.05 | 0.00 | 88 | 1008.5 |
| 20260904114510 | 19 | 65 | 1.6 | 4.8 | 0.00 | 0.05 | 0.00 | 88 | 1008.7 |
| 20260904113126 | 19 | 65 | 0.0 | 8.0 | 0.00 | 0.05 | 0.00 | 88 | 1008.4 |
| 20260904111513 | 19 | 80 | 3.2 | 6.4 | 0.00 | 0.05 | 0.00 | 88 | 1008.1 |
| 20260904110129 | 19 | 69 | 4.8 | 14.5 | 0.00 | 0.05 | 0.00 | 88 | 1007.9 |
| 20260904104502 | 18 | 60 | 4.8 | 14.5 | 0.00 | 0.05 | 0.00 | 88 | 1008.1 |
| 20260904103008 | 18 | 70 | 8.0 | 19.3 | 0.00 | 0.05 | 0.00 | 89 | 1008.1 |
| 20260904101514 | 18 | 98 | 6.4 | 16.1 | 0.00 | 0.05 | 0.00 | 88 | 1008.2 |
| 20260904100001 | 18 | 99 | 6.4 | 16.1 | 0.00 | 0.05 | 0.00 | 88 | 1008.2 |
| 20260904094506 | 18 | 92 | 8.0 | 16.1 | 0.00 | 0.05 | 0.00 | 88 | 1008.3 |
| 20260904093020 | 18 | 54 | 8.0 | 22.5 | 0.00 | 0.05 | 0.00 | 88 | 1008.3 |
| 20260904091509 | 18 | 52 | 9.7 | 17.7 | 0.00 | 0.05 | 0.00 | 88 | 1008.4 |
| 20260904090007 | 18 | 27 | 8.0 | 17.7 | 0.00 | 0.05 | 0.00 | 89 | 1008.3 |
| 20260904084512 | 18 | 9 | 4.8 | 16.1 | 0.00 | 0.05 | 0.00 | 89 | 1008.4 |
| 20260904083129 | 18 | 5 | 6.4 | 22.5 | 0.00 | 0.05 | 0.00 | 89 | 1008.2 |
| 20260904081510 | 19 | 54 | 8.0 | 22.5 | 0.00 | 0.05 | 0.00 | 89 | 1008.3 |
| 20260904080008 | 20 | 20 | 11.3 | 38.6 | 0.00 | 0.05 | 0.00 | 89 | 1007.8 |
| 20260904074507 | 21 | 15 | 4.8 | 6.4 | 0.00 | 0.05 | 0.00 | 90 | 1007.2 |
| 20260904073034 | 21 | 35 | 1.6 | 6.4 | 0.00 | 0.05 | 0.00 | 90 | 1007.3 |
| 20260904071623 | 22 | 59 | 3.2 | 6.4 | 0.00 | 0.05 | 0.00 | 89 | 1007.1 |
| 20260904070124 | 22 | 57 | 1.6 | 6.4 | 0.00 | 0.05 | 0.00 | 89 | 1007.1 |
| 20260904064517 | 22 | 51 | 3.2 | 9.7 | 0.00 | 0.05 | 0.00 | 89 | 1007.1 |
| 20260904063003 | 22 | 50 | 4.8 | 9.7 | 0.00 | 0.05 | 0.00 | 89 | 1007.3 |
| 20260904061628 | 22 | 57 | 3.2 | 11.3 | 0.00 | 0.05 | 0.00 | 88 | 1007.1 |
| 20260904060001 | 22 | 90 | 3.2 | 9.7 | 0.00 | 0.05 | 0.00 | 88 | 1007.1 |
| 20260904054510 | 23 | 128 | 6.4 | 12.9 | 0.00 | 0.05 | 0.00 | 87 | 1007.4 |
| 20260904053007 | 23 | 80 | 6.4 | 14.5 | 0.00 | 0.05 | 0.00 | 87 | 1007.3 |
| 20260904051510 | 23 | 101 | 6.4 | 12.9 | 0.00 | 0.05 | 0.00 | 86 | 1007.3 |
| 20260904050009 | 23 | 70 | 3.2 | 11.3 | 0.00 | 0.05 | 0.00 | 86 | 1007.6 |
| 20260904044512 | 23 | 92 | 6.4 | 14.5 | 0.00 | 0.05 | 0.05 | 86 | 1007.4 |
| 20260904043130 | 23 | 13 | 4.8 | 14.5 | 0.00 | 0.05 | 0.05 | 86 | 1007.5 |
| 20260904041512 | 23 | 124 | 8.0 | 19.3 | 0.00 | 0.05 | 0.05 | 86 | 1007.2 |
| 20260904040010 | 23 | 137 | 12.9 | 22.5 | 0.00 | 0.05 | 0.05 | 86 | 1007.0 |
| 20260904034516 | 23 | 123 | 12.9 | 27.4 | 0.00 | 0.05 | 0.05 | 87 | 1006.9 |
| 20260904033021 | 23 | 124 | 9.7 | 17.7 | 0.00 | 0.05 | 0.05 | 86 | 1006.9 |
| 20260904031510 | 23 | 128 | 9.7 | 17.7 | 0.00 | 0.05 | 0.05 | 86 | 1007.0 |
| 20260904030016 | 23 | 93 | 9.7 | 17.7 | 0.00 | 0.05 | 0.05 | 86 | 1007.2 |
| 20260904024507 | 22 | 70 | 8.0 | 16.1 | 0.00 | 0.05 | 0.05 | 86 | 1007.3 |
| 20260904023149 | 22 | 92 | 8.0 | 17.7 | 0.00 | 0.05 | 0.05 | 86 | 1007.2 |
| 20260904021511 | 22 | 69 | 9.7 | 19.3 | 0.00 | 0.05 | 0.05 | 85 | 1007.0 |
| 20260904020136 | 23 | 98 | 9.7 | 16.1 | 0.00 | 0.05 | 0.05 | 84 | 1007.0 |
| 20260904014512 | 23 | 86 | 9.7 | 17.7 | 0.00 | 0.05 | 0.05 | 83 | 1006.8 |
| 20260904013014 | 23 | 103 | 11.3 | 19.3 | 0.00 | 0.05 | 0.05 | 82 | 1006.5 |
| 20260904011502 | 23 | 95 | 11.3 | 19.3 | 0.00 | 0.05 | 0.05 | 81 | 1006.4 |
| 20260904010124 | 24 | 85 | 11.3 | 17.7 | 0.00 | 0.05 | 0.05 | 80 | 1006.3 |
| 20260904004626 | 24 | 112 | 9.7 | 17.7 | 0.00 | 0.05 | 0.05 | 79 | 1006.5 |
| 20260904003012 | 25 | 96 | 8.0 | 16.1 | 0.00 | 0.05 | 0.05 | 78 | 1006.5 |
| 20260904001626 | 25 | 130 | 8.0 | 14.5 | 0.00 | 0.05 | 0.05 | 76 | 1006.6 |
| 20260904000017 | 25 | 128 | 11.3 | 22.5 | 0.00 | 0.05 | 0.05 | 75 | 1006.4 |
| 20260903234621 | 26 | 130 | 14.5 | 20.9 | 0.00 | 0.05 | 0.05 | 74 | 1006.3 |
| 20260903233123 | 26 | 144 | 12.9 | 22.5 | 0.00 | 0.05 | 0.05 | 73 | 1006.1 |
| 20260903231503 | 26 | 120 | 11.3 | 19.3 | 0.00 | 0.05 | 0.05 | 74 | 1005.9 |
| 20260903230125 | 26 | 141 | 8.0 | 16.1 | 0.05 | 0.05 | 0.05 | 76 | 1005.9 |
| 20260903224510 | 25 | 115 | 9.7 | 17.7 | 0.05 | 0.05 | 0.05 | 79 | 1006.1 |
| 20260903223013 | 23 | 107 | 8.0 | 16.1 | 0.05 | 0.05 | 0.05 | 82 | 1006.0 |
| 20260903221504 | 24 | 112 | 9.7 | 16.1 | 0.05 | 0.05 | 0.05 | 77 | 1006.1 |
| 20260903220005 | 26 | 145 | 9.7 | 27.4 | 0.00 | 0.00 | 0.00 | 68 | 1006.2 |
| 20260903214628 | 26 | 171 | 11.3 | 24.1 | 0.00 | 0.00 | 0.00 | 68 | 1006.1 |
| 20260903213018 | 26 | 165 | 11.3 | 20.9 | 0.00 | 0.00 | 0.00 | 66 | 1006.2 |
| 20260903211627 | 27 | 163 | 6.4 | 22.5 | 0.00 | 0.00 | 0.00 | 66 | 1006.3 |
| 20260903210014 | 28 | 167 | 16.1 | 25.7 | 0.00 | 0.00 | 0.00 | 64 | 1005.9 |
| 20260903204502 | 29 | 266 | 11.3 | 25.7 | 0.00 | 0.00 | 0.00 | 61 | 1006.1 |
| 20260903203015 | 28 | 128 | 9.7 | 27.4 | 0.00 | 0.00 | 0.00 | 62 | 1006.0 |
| 20260903201517 | 28 | 155 | 16.1 | 30.6 | 0.00 | 0.00 | 0.00 | 60 | 1006.4 |
| 20260903200007 | 28 | 167 | 11.3 | 29.0 | 0.00 | 0.00 | 0.00 | 62 | 1006.4 |
| 20260903194515 | 29 | 159 | 12.9 | 32.2 | 0.00 | 0.00 | 0.00 | 59 | 1006.4 |
| 20260903193014 | 30 | 187 | 14.5 | 19.3 | 0.00 | 0.00 | 0.00 | 57 | 1006.5 |
| 20260903191511 | 30 | 168 | 14.5 | 29.0 | 0.00 | 0.00 | 0.00 | 58 | 1006.6 |
| 20260903190126 | 30 | 157 | 11.3 | 25.7 | 0.00 | 0.00 | 0.00 | 57 | 1006.7 |
| 20260903184509 | 30 | 156 | 11.3 | 29.0 | 0.00 | 0.00 | 0.00 | 57 | 1006.8 |